sensor_id;sensor_type;location;lat;lon;timestamp;P1;durP1;ratioP1;P2;durP2;ratioP2
51020;SDS011;38907;45.562;8.856;2023-03-14T00:03:53;46.30;;;27.10;;
51020;SDS011;38907;45.562;8.856;2023-03-14T00:08:54;36.80;;;25.13;;
51020;SDS011;38907;45.562;8.856;2023-03-14T00:13:58;42.40;;;29.15;;
51020;SDS011;38907;45.562;8.856;2023-03-14T00:19:00;46.63;;;27.27;;
51020;SDS011;38907;45.562;8.856;2023-03-14T00:24:01;44.13;;;28.75;;
51020;SDS011;38907;45.562;8.856;2023-03-14T00:29:05;44.97;;;27.85;;
51020;SDS011;38907;45.562;8.856;2023-03-14T00:34:06;49.65;;;29.35;;
51020;SDS011;38907;45.562;8.856;2023-03-14T00:39:08;42.90;;;27.40;;
51020;SDS011;38907;45.562;8.856;2023-03-14T00:44:11;41.78;;;26.77;;
51020;SDS011;38907;45.562;8.856;2023-03-14T00:49:13;39.10;;;25.10;;
51020;SDS011;38907;45.562;8.856;2023-03-14T00:54:15;41.35;;;26.13;;
51020;SDS011;38907;45.562;8.856;2023-03-14T00:59:18;40.90;;;25.35;;
51020;SDS011;38907;45.562;8.856;2023-03-14T01:04:20;37.90;;;25.92;;
51020;SDS011;38907;45.562;8.856;2023-03-14T01:09:22;45.25;;;26.08;;
51020;SDS011;38907;45.562;8.856;2023-03-14T01:14:25;46.50;;;25.52;;
51020;SDS011;38907;45.562;8.856;2023-03-14T01:19:27;39.85;;;24.95;;
51020;SDS011;38907;45.562;8.856;2023-03-14T01:24:29;46.65;;;23.52;;
51020;SDS011;38907;45.562;8.856;2023-03-14T01:29:32;40.33;;;24.08;;
51020;SDS011;38907;45.562;8.856;2023-03-14T01:34:34;41.78;;;23.20;;
51020;SDS011;38907;45.562;8.856;2023-03-14T01:39:36;36.08;;;21.95;;
51020;SDS011;38907;45.562;8.856;2023-03-14T01:44:50;38.42;;;20.88;;
51020;SDS011;38907;45.562;8.856;2023-03-14T01:49:54;33.38;;;20.63;;
51020;SDS011;38907;45.562;8.856;2023-03-14T01:55:01;35.15;;;21.88;;
51020;SDS011;38907;45.562;8.856;2023-03-14T02:00:09;32.28;;;21.33;;
51020;SDS011;38907;45.562;8.856;2023-03-14T02:05:14;37.65;;;20.25;;
51020;SDS011;38907;45.562;8.856;2023-03-14T02:10:19;32.38;;;19.35;;
51020;SDS011;38907;45.562;8.856;2023-03-14T02:15:26;36.47;;;20.35;;
51020;SDS011;38907;45.562;8.856;2023-03-14T02:20:30;32.20;;;19.55;;
51020;SDS011;38907;45.562;8.856;2023-03-14T02:25:38;31.75;;;20.17;;
51020;SDS011;38907;45.562;8.856;2023-03-14T02:30:46;29.95;;;18.98;;
51020;SDS011;38907;45.562;8.856;2023-03-14T02:35:50;36.22;;;20.88;;
51020;SDS011;38907;45.562;8.856;2023-03-14T02:40:57;35.58;;;20.90;;
51020;SDS011;38907;45.562;8.856;2023-03-14T02:46:01;47.38;;;21.65;;
51020;SDS011;38907;45.562;8.856;2023-03-14T02:51:05;35.88;;;23.08;;
51020;SDS011;38907;45.562;8.856;2023-03-14T02:56:08;36.38;;;23.33;;
51020;SDS011;38907;45.562;8.856;2023-03-14T03:01:12;39.78;;;25.20;;
51020;SDS011;38907;45.562;8.856;2023-03-14T03:06:14;41.85;;;26.27;;
51020;SDS011;38907;45.562;8.856;2023-03-14T03:11:16;37.83;;;23.38;;
51020;SDS011;38907;45.562;8.856;2023-03-14T03:16:19;31.70;;;21.77;;
51020;SDS011;38907;45.562;8.856;2023-03-14T03:21:21;33.92;;;22.02;;
51020;SDS011;38907;45.562;8.856;2023-03-14T03:26:23;33.95;;;21.77;;
51020;SDS011;38907;45.562;8.856;2023-03-14T03:31:27;32.45;;;21.88;;
51020;SDS011;38907;45.562;8.856;2023-03-14T03:36:29;31.27;;;21.65;;
51020;SDS011;38907;45.562;8.856;2023-03-14T03:41:31;34.97;;;22.15;;
51020;SDS011;38907;45.562;8.856;2023-03-14T03:46:34;37.10;;;23.90;;
51020;SDS011;38907;45.562;8.856;2023-03-14T03:51:36;30.08;;;22.00;;
51020;SDS011;38907;45.562;8.856;2023-03-14T03:56:38;36.80;;;24.38;;
51020;SDS011;38907;45.562;8.856;2023-03-14T04:01:41;37.03;;;25.08;;
51020;SDS011;38907;45.562;8.856;2023-03-14T04:06:43;35.75;;;23.77;;
51020;SDS011;38907;45.562;8.856;2023-03-14T04:11:45;34.63;;;23.63;;
51020;SDS011;38907;45.562;8.856;2023-03-14T04:16:48;39.72;;;23.10;;
51020;SDS011;38907;45.562;8.856;2023-03-14T04:21:50;36.33;;;23.73;;
51020;SDS011;38907;45.562;8.856;2023-03-14T04:26:52;32.70;;;22.55;;
51020;SDS011;38907;45.562;8.856;2023-03-14T04:31:55;33.65;;;23.45;;
51020;SDS011;38907;45.562;8.856;2023-03-14T04:36:57;34.85;;;23.55;;
51020;SDS011;38907;45.562;8.856;2023-03-14T04:41:59;34.00;;;23.30;;
51020;SDS011;38907;45.562;8.856;2023-03-14T04:47:02;35.95;;;23.77;;
51020;SDS011;38907;45.562;8.856;2023-03-14T04:52:04;40.53;;;26.10;;
51020;SDS011;38907;45.562;8.856;2023-03-14T04:57:06;38.05;;;24.60;;
51020;SDS011;38907;45.562;8.856;2023-03-14T05:02:09;40.00;;;25.30;;
51020;SDS011;38907;45.562;8.856;2023-03-14T05:07:11;37.35;;;25.23;;
51020;SDS011;38907;45.562;8.856;2023-03-14T05:12:13;37.40;;;25.95;;
51020;SDS011;38907;45.562;8.856;2023-03-14T05:17:16;38.63;;;23.38;;
51020;SDS011;38907;45.562;8.856;2023-03-14T05:22:18;34.40;;;24.20;;
51020;SDS011;38907;45.562;8.856;2023-03-14T05:27:20;34.83;;;23.65;;
51020;SDS011;38907;45.562;8.856;2023-03-14T05:32:23;43.92;;;27.73;;
51020;SDS011;38907;45.562;8.856;2023-03-14T05:37:25;46.15;;;29.33;;
51020;SDS011;38907;45.562;8.856;2023-03-14T05:42:27;39.95;;;26.20;;
51020;SDS011;38907;45.562;8.856;2023-03-14T05:47:30;35.75;;;24.33;;
51020;SDS011;38907;45.562;8.856;2023-03-14T05:52:32;38.28;;;23.70;;
51020;SDS011;38907;45.562;8.856;2023-03-14T05:57:34;37.40;;;23.73;;
51020;SDS011;38907;45.562;8.856;2023-03-14T06:02:37;39.63;;;26.17;;
51020;SDS011;38907;45.562;8.856;2023-03-14T06:07:39;41.05;;;25.05;;
51020;SDS011;38907;45.562;8.856;2023-03-14T06:12:41;42.80;;;26.33;;
51020;SDS011;38907;45.562;8.856;2023-03-14T06:17:44;40.80;;;26.30;;
51020;SDS011;38907;45.562;8.856;2023-03-14T06:22:46;40.15;;;26.52;;
51020;SDS011;38907;45.562;8.856;2023-03-14T06:27:48;44.25;;;27.90;;
51020;SDS011;38907;45.562;8.856;2023-03-14T06:32:51;43.75;;;26.52;;
51020;SDS011;38907;45.562;8.856;2023-03-14T06:37:53;39.33;;;26.92;;
51020;SDS011;38907;45.562;8.856;2023-03-14T06:42:55;40.03;;;25.45;;
51020;SDS011;38907;45.562;8.856;2023-03-14T06:47:58;45.17;;;25.35;;
51020;SDS011;38907;45.562;8.856;2023-03-14T06:53:00;45.60;;;29.77;;
51020;SDS011;38907;45.562;8.856;2023-03-14T06:58:02;41.85;;;26.67;;
51020;SDS011;38907;45.562;8.856;2023-03-14T07:03:05;42.28;;;26.63;;
51020;SDS011;38907;45.562;8.856;2023-03-14T07:08:07;40.35;;;25.10;;
51020;SDS011;38907;45.562;8.856;2023-03-14T07:13:09;41.60;;;26.27;;
51020;SDS011;38907;45.562;8.856;2023-03-14T07:18:12;42.00;;;26.25;;
51020;SDS011;38907;45.562;8.856;2023-03-14T07:23:14;43.95;;;27.27;;
51020;SDS011;38907;45.562;8.856;2023-03-14T07:28:16;42.03;;;25.83;;
51020;SDS011;38907;45.562;8.856;2023-03-14T07:33:19;42.03;;;26.40;;
51020;SDS011;38907;45.562;8.856;2023-03-14T07:38:21;43.30;;;26.50;;
51020;SDS011;38907;45.562;8.856;2023-03-14T07:43:23;41.80;;;26.70;;
51020;SDS011;38907;45.562;8.856;2023-03-14T07:48:27;40.75;;;26.15;;
51020;SDS011;38907;45.562;8.856;2023-03-14T07:53:28;40.47;;;25.60;;
51020;SDS011;38907;45.562;8.856;2023-03-14T07:58:30;44.45;;;26.00;;
51020;SDS011;38907;45.562;8.856;2023-03-14T08:03:33;45.90;;;26.35;;
51020;SDS011;38907;45.562;8.856;2023-03-14T08:08:35;39.22;;;24.73;;
51020;SDS011;38907;45.562;8.856;2023-03-14T08:13:37;44.60;;;25.63;;
51020;SDS011;38907;45.562;8.856;2023-03-14T08:18:41;38.67;;;24.75;;
51020;SDS011;38907;45.562;8.856;2023-03-14T08:23:42;40.17;;;26.10;;
51020;SDS011;38907;45.562;8.856;2023-03-14T08:28:44;39.78;;;25.45;;
51020;SDS011;38907;45.562;8.856;2023-03-14T08:33:47;37.58;;;23.73;;
51020;SDS011;38907;45.562;8.856;2023-03-14T08:38:52;42.00;;;23.15;;
51020;SDS011;38907;45.562;8.856;2023-03-14T08:43:54;34.63;;;22.80;;
51020;SDS011;38907;45.562;8.856;2023-03-14T08:48:57;42.55;;;23.77;;
51020;SDS011;38907;45.562;8.856;2023-03-14T08:53:59;35.05;;;22.35;;
51020;SDS011;38907;45.562;8.856;2023-03-14T08:59:01;33.30;;;21.60;;
51020;SDS011;38907;45.562;8.856;2023-03-14T09:04:04;36.00;;;22.50;;
51020;SDS011;38907;45.562;8.856;2023-03-14T09:09:06;25.25;;;17.50;;
51020;SDS011;38907;45.562;8.856;2023-03-14T09:14:08;32.17;;;20.60;;
51020;SDS011;38907;45.562;8.856;2023-03-14T09:19:11;34.47;;;22.25;;
51020;SDS011;38907;45.562;8.856;2023-03-14T09:24:13;34.92;;;21.45;;
51020;SDS011;38907;45.562;8.856;2023-03-14T09:29:16;39.83;;;23.67;;
51020;SDS011;38907;45.562;8.856;2023-03-14T09:34:19;39.42;;;24.45;;
51020;SDS011;38907;45.562;8.856;2023-03-14T09:39:21;37.10;;;22.45;;
51020;SDS011;38907;45.562;8.856;2023-03-14T09:44:24;41.40;;;24.02;;
51020;SDS011;38907;45.562;8.856;2023-03-14T09:49:31;38.25;;;23.83;;
51020;SDS011;38907;45.562;8.856;2023-03-14T09:54:34;38.10;;;23.05;;
51020;SDS011;38907;45.562;8.856;2023-03-14T09:59:38;43.47;;;23.80;;
51020;SDS011;38907;45.562;8.856;2023-03-14T10:04:42;38.30;;;23.92;;
51020;SDS011;38907;45.562;8.856;2023-03-14T10:09:47;40.53;;;24.25;;
51020;SDS011;38907;45.562;8.856;2023-03-14T10:14:51;38.92;;;24.40;;
51020;SDS011;38907;45.562;8.856;2023-03-14T10:19:56;36.92;;;22.63;;
51020;SDS011;38907;45.562;8.856;2023-03-14T10:25:00;39.08;;;21.75;;
51020;SDS011;38907;45.562;8.856;2023-03-14T10:30:05;36.97;;;22.48;;
51020;SDS011;38907;45.562;8.856;2023-03-14T10:35:19;29.38;;;19.60;;
51020;SDS011;38907;45.562;8.856;2023-03-14T10:40:24;28.15;;;17.40;;
51020;SDS011;38907;45.562;8.856;2023-03-14T10:45:31;30.95;;;18.25;;
51020;SDS011;38907;45.562;8.856;2023-03-14T10:50:37;31.00;;;18.52;;
51020;SDS011;38907;45.562;8.856;2023-03-14T10:55:39;28.95;;;18.77;;
51020;SDS011;38907;45.562;8.856;2023-03-14T11:05:46;29.77;;;17.08;;
51020;SDS011;38907;45.562;8.856;2023-03-14T11:10:53;31.38;;;17.60;;
51020;SDS011;38907;45.562;8.856;2023-03-14T11:16:01;27.38;;;17.02;;
51020;SDS011;38907;45.562;8.856;2023-03-14T11:21:12;31.17;;;17.65;;
51020;SDS011;38907;45.562;8.856;2023-03-14T11:26:20;23.17;;;15.32;;
51020;SDS011;38907;45.562;8.856;2023-03-14T11:31:29;20.50;;;14.15;;
51020;SDS011;38907;45.562;8.856;2023-03-14T11:36:37;24.88;;;15.23;;
51020;SDS011;38907;45.562;8.856;2023-03-14T11:41:41;21.73;;;14.95;;
51020;SDS011;38907;45.562;8.856;2023-03-14T11:46:48;22.60;;;15.18;;
51020;SDS011;38907;45.562;8.856;2023-03-14T11:51:56;22.35;;;15.18;;
51020;SDS011;38907;45.562;8.856;2023-03-14T11:57:01;20.38;;;14.05;;
51020;SDS011;38907;45.562;8.856;2023-03-14T12:02:05;22.95;;;15.45;;
51020;SDS011;38907;45.562;8.856;2023-03-14T12:07:17;21.02;;;14.52;;
51020;SDS011;38907;45.562;8.856;2023-03-14T12:12:22;20.50;;;15.30;;
51020;SDS011;38907;45.562;8.856;2023-03-14T12:17:27;21.45;;;13.38;;
51020;SDS011;38907;45.562;8.856;2023-03-14T12:22:41;19.27;;;12.73;;
51020;SDS011;38907;45.562;8.856;2023-03-14T12:33:25;18.55;;;13.32;;
51020;SDS011;38907;45.562;8.856;2023-03-14T12:38:39;17.48;;;13.05;;
51020;SDS011;38907;45.562;8.856;2023-03-14T12:43:48;16.50;;;11.77;;
51020;SDS011;38907;45.562;8.856;2023-03-14T12:48:53;18.25;;;12.90;;
51020;SDS011;38907;45.562;8.856;2023-03-14T12:54:02;17.33;;;11.93;;
51020;SDS011;38907;45.562;8.856;2023-03-14T12:59:15;17.50;;;11.75;;
51020;SDS011;38907;45.562;8.856;2023-03-14T13:04:31;16.77;;;11.90;;
51020;SDS011;38907;45.562;8.856;2023-03-14T13:09:48;14.48;;;11.57;;
51020;SDS011;38907;45.562;8.856;2023-03-14T13:14:57;15.27;;;11.05;;
51020;SDS011;38907;45.562;8.856;2023-03-14T13:20:02;15.05;;;10.35;;
51020;SDS011;38907;45.562;8.856;2023-03-14T13:25:12;14.32;;;10.68;;
51020;SDS011;38907;45.562;8.856;2023-03-14T13:35:24;19.13;;;12.93;;
51020;SDS011;38907;45.562;8.856;2023-03-14T13:40:30;16.27;;;12.88;;
51020;SDS011;38907;45.562;8.856;2023-03-14T13:45:41;16.83;;;12.40;;
51020;SDS011;38907;45.562;8.856;2023-03-14T13:50:52;17.27;;;12.60;;
51020;SDS011;38907;45.562;8.856;2023-03-14T13:56:00;18.23;;;12.95;;
51020;SDS011;38907;45.562;8.856;2023-03-14T14:01:05;20.67;;;14.07;;
51020;SDS011;38907;45.562;8.856;2023-03-14T14:06:19;19.38;;;12.73;;
51020;SDS011;38907;45.562;8.856;2023-03-14T14:11:32;19.45;;;12.45;;
51020;SDS011;38907;45.562;8.856;2023-03-14T14:16:43;17.42;;;12.50;;
51020;SDS011;38907;45.562;8.856;2023-03-14T14:21:46;18.98;;;12.30;;
51020;SDS011;38907;45.562;8.856;2023-03-14T14:26:51;17.13;;;12.68;;
51020;SDS011;38907;45.562;8.856;2023-03-14T14:32:01;17.23;;;12.57;;
51020;SDS011;38907;45.562;8.856;2023-03-14T14:37:05;19.98;;;13.35;;
51020;SDS011;38907;45.562;8.856;2023-03-14T14:42:17;18.02;;;13.02;;
51020;SDS011;38907;45.562;8.856;2023-03-14T14:47:23;18.13;;;13.07;;
51020;SDS011;38907;45.562;8.856;2023-03-14T14:52:31;18.70;;;13.10;;
51020;SDS011;38907;45.562;8.856;2023-03-14T14:57:39;17.45;;;12.95;;
51020;SDS011;38907;45.562;8.856;2023-03-14T15:02:44;18.52;;;12.95;;
51020;SDS011;38907;45.562;8.856;2023-03-14T15:07:48;18.58;;;13.07;;
51020;SDS011;38907;45.562;8.856;2023-03-14T15:12:51;17.58;;;12.48;;
51020;SDS011;38907;45.562;8.856;2023-03-14T15:17:53;15.15;;;11.68;;
51020;SDS011;38907;45.562;8.856;2023-03-14T15:22:55;21.25;;;13.50;;
51020;SDS011;38907;45.562;8.856;2023-03-14T15:27:58;17.38;;;12.45;;
51020;SDS011;38907;45.562;8.856;2023-03-14T15:38:02;18.10;;;12.75;;
51020;SDS011;38907;45.562;8.856;2023-03-14T15:43:06;20.67;;;13.73;;
51020;SDS011;38907;45.562;8.856;2023-03-14T15:48:17;20.73;;;13.50;;
51020;SDS011;38907;45.562;8.856;2023-03-14T15:53:21;21.80;;;13.73;;
51020;SDS011;38907;45.562;8.856;2023-03-14T15:58:24;18.10;;;13.05;;
51020;SDS011;38907;45.562;8.856;2023-03-14T16:08:27;21.02;;;14.15;;
51020;SDS011;38907;45.562;8.856;2023-03-14T16:13:31;18.35;;;12.27;;
51020;SDS011;38907;45.562;8.856;2023-03-14T16:23:36;18.27;;;11.07;;
51020;SDS011;38907;45.562;8.856;2023-03-14T16:28:39;14.40;;;10.38;;
51020;SDS011;38907;45.562;8.856;2023-03-14T16:33:42;13.98;;;10.32;;
51020;SDS011;38907;45.562;8.856;2023-03-14T16:38:44;14.88;;;10.95;;
51020;SDS011;38907;45.562;8.856;2023-03-14T16:43:47;14.07;;;10.40;;
51020;SDS011;38907;45.562;8.856;2023-03-14T16:48:53;13.63;;;9.40;;
51020;SDS011;38907;45.562;8.856;2023-03-14T16:53:56;13.82;;;9.43;;
51020;SDS011;38907;45.562;8.856;2023-03-14T16:58:59;14.48;;;10.23;;
51020;SDS011;38907;45.562;8.856;2023-03-14T17:04:01;13.23;;;9.77;;
51020;SDS011;38907;45.562;8.856;2023-03-14T17:09:03;16.73;;;9.95;;
51020;SDS011;38907;45.562;8.856;2023-03-14T17:14:07;12.82;;;9.77;;
51020;SDS011;38907;45.562;8.856;2023-03-14T17:19:09;13.93;;;9.35;;
51020;SDS011;38907;45.562;8.856;2023-03-14T17:24:11;12.82;;;8.85;;
51020;SDS011;38907;45.562;8.856;2023-03-14T17:29:14;13.57;;;8.52;;
51020;SDS011;38907;45.562;8.856;2023-03-14T17:34:16;11.70;;;9.13;;
51020;SDS011;38907;45.562;8.856;2023-03-14T17:39:18;12.25;;;8.48;;
51020;SDS011;38907;45.562;8.856;2023-03-14T17:44:21;12.55;;;8.43;;
51020;SDS011;38907;45.562;8.856;2023-03-14T17:49:23;9.38;;;7.05;;
51020;SDS011;38907;45.562;8.856;2023-03-14T17:54:25;9.80;;;7.10;;
51020;SDS011;38907;45.562;8.856;2023-03-14T17:59:28;9.13;;;6.85;;
51020;SDS011;38907;45.562;8.856;2023-03-14T18:04:30;11.25;;;7.50;;
51020;SDS011;38907;45.562;8.856;2023-03-14T18:09:33;10.93;;;7.37;;
51020;SDS011;38907;45.562;8.856;2023-03-14T18:14:37;7.97;;;6.40;;
51020;SDS011;38907;45.562;8.856;2023-03-14T18:24:41;7.05;;;5.25;;
51020;SDS011;38907;45.562;8.856;2023-03-14T18:29:44;5.75;;;4.95;;
51020;SDS011;38907;45.562;8.856;2023-03-14T18:34:46;6.28;;;5.00;;
51020;SDS011;38907;45.562;8.856;2023-03-14T18:39:48;6.30;;;4.40;;
51020;SDS011;38907;45.562;8.856;2023-03-14T18:44:51;7.53;;;5.68;;
51020;SDS011;38907;45.562;8.856;2023-03-14T18:49:53;24.08;;;20.40;;
51020;SDS011;38907;45.562;8.856;2023-03-14T18:54:55;13.85;;;11.93;;
51020;SDS011;38907;45.562;8.856;2023-03-14T18:59:58;9.38;;;7.30;;
51020;SDS011;38907;45.562;8.856;2023-03-14T19:05:00;8.90;;;8.00;;
51020;SDS011;38907;45.562;8.856;2023-03-14T19:10:02;10.07;;;8.93;;
51020;SDS011;38907;45.562;8.856;2023-03-14T19:15:07;12.05;;;9.13;;
51020;SDS011;38907;45.562;8.856;2023-03-14T19:20:11;11.48;;;9.50;;
51020;SDS011;38907;45.562;8.856;2023-03-14T19:25:13;9.73;;;8.63;;
51020;SDS011;38907;45.562;8.856;2023-03-14T19:30:16;8.82;;;7.55;;
51020;SDS011;38907;45.562;8.856;2023-03-14T19:35:18;10.00;;;7.93;;
51020;SDS011;38907;45.562;8.856;2023-03-14T19:40:20;10.15;;;7.18;;
51020;SDS011;38907;45.562;8.856;2023-03-14T19:45:23;8.75;;;6.78;;
51020;SDS011;38907;45.562;8.856;2023-03-14T19:50:31;7.97;;;6.65;;
51020;SDS011;38907;45.562;8.856;2023-03-14T19:55:33;6.95;;;5.97;;
51020;SDS011;38907;45.562;8.856;2023-03-14T20:00:37;9.47;;;7.03;;
51020;SDS011;38907;45.562;8.856;2023-03-14T20:05:40;15.32;;;9.30;;
51020;SDS011;38907;45.562;8.856;2023-03-14T20:10:44;10.82;;;8.15;;
51020;SDS011;38907;45.562;8.856;2023-03-14T20:15:47;10.00;;;7.85;;
51020;SDS011;38907;45.562;8.856;2023-03-14T20:20:52;10.98;;;7.05;;
51020;SDS011;38907;45.562;8.856;2023-03-14T20:25:54;8.75;;;6.80;;
51020;SDS011;38907;45.562;8.856;2023-03-14T20:30:58;8.93;;;6.40;;
51020;SDS011;38907;45.562;8.856;2023-03-14T20:36:00;9.85;;;7.10;;
51020;SDS011;38907;45.562;8.856;2023-03-14T20:41:02;8.93;;;6.75;;
51020;SDS011;38907;45.562;8.856;2023-03-14T20:46:09;9.48;;;6.25;;
51020;SDS011;38907;45.562;8.856;2023-03-14T20:51:13;10.07;;;6.57;;
51020;SDS011;38907;45.562;8.856;2023-03-14T21:01:19;4.32;;;3.80;;
51020;SDS011;38907;45.562;8.856;2023-03-14T21:06:21;6.32;;;4.13;;
51020;SDS011;38907;45.562;8.856;2023-03-14T21:11:24;6.85;;;3.63;;
51020;SDS011;38907;45.562;8.856;2023-03-14T21:16:28;2.40;;;1.83;;
51020;SDS011;38907;45.562;8.856;2023-03-14T21:21:30;1.02;;;0.90;;
51020;SDS011;38907;45.562;8.856;2023-03-14T21:26:33;2.38;;;0.80;;
51020;SDS011;38907;45.562;8.856;2023-03-14T21:31:37;0.85;;;0.60;;
51020;SDS011;38907;45.562;8.856;2023-03-14T21:36:39;0.70;;;0.40;;
51020;SDS011;38907;45.562;8.856;2023-03-14T21:41:40;2.70;;;0.50;;
51020;SDS011;38907;45.562;8.856;2023-03-14T21:46:44;1.20;;;0.70;;
51020;SDS011;38907;45.562;8.856;2023-03-14T21:51:46;1.30;;;1.20;;
51020;SDS011;38907;45.562;8.856;2023-03-14T21:56:48;0.40;;;0.40;;
51020;SDS011;38907;45.562;8.856;2023-03-14T22:01:51;1.58;;;1.48;;
51020;SDS011;38907;45.562;8.856;2023-03-14T22:06:54;1.00;;;0.60;;
51020;SDS011;38907;45.562;8.856;2023-03-14T22:11:56;0.50;;;0.50;;
51020;SDS011;38907;45.562;8.856;2023-03-14T22:17:00;0.80;;;0.70;;
51020;SDS011;38907;45.562;8.856;2023-03-14T22:22:03;0.93;;;0.90;;
51020;SDS011;38907;45.562;8.856;2023-03-14T22:27:05;1.05;;;0.95;;
51020;SDS011;38907;45.562;8.856;2023-03-14T22:32:09;2.55;;;1.40;;
51020;SDS011;38907;45.562;8.856;2023-03-14T22:37:11;0.50;;;0.50;;
51020;SDS011;38907;45.562;8.856;2023-03-14T22:42:13;0.68;;;0.45;;
51020;SDS011;38907;45.562;8.856;2023-03-14T22:47:16;0.70;;;0.50;;
51020;SDS011;38907;45.562;8.856;2023-03-14T22:52:18;0.70;;;0.70;;
51020;SDS011;38907;45.562;8.856;2023-03-14T22:57:20;0.50;;;0.50;;
51020;SDS011;38907;45.562;8.856;2023-03-14T23:02:23;0.63;;;0.63;;
51020;SDS011;38907;45.562;8.856;2023-03-14T23:07:25;0.40;;;0.40;;
51020;SDS011;38907;45.562;8.856;2023-03-14T23:12:27;0.30;;;0.30;;
51020;SDS011;38907;45.562;8.856;2023-03-14T23:17:30;0.68;;;0.40;;
51020;SDS011;38907;45.562;8.856;2023-03-14T23:27:34;0.35;;;0.20;;
51020;SDS011;38907;45.562;8.856;2023-03-14T23:32:37;1.27;;;0.47;;
51020;SDS011;38907;45.562;8.856;2023-03-14T23:37:41;0.40;;;0.40;;
51020;SDS011;38907;45.562;8.856;2023-03-14T23:42:43;0.60;;;0.38;;
51020;SDS011;38907;45.562;8.856;2023-03-14T23:47:46;0.50;;;0.35;;
51020;SDS011;38907;45.562;8.856;2023-03-14T23:52:48;0.20;;;0.20;;
51020;SDS011;38907;45.562;8.856;2023-03-14T23:57:50;0.40;;;0.30;;
